Portada
METAR-TAF:

METAR-TAF

Aeropuertos :

Aeropuerto de Kangiqsualujjuaq

Kangiqsualujjuaq, Quebec, Canadá

latitud: 58-43N, longitud: 065-59W, altitud: 60 m

Observación

El informe se hizo hace 6 horas y 59 minutos, a las 21:00 UTC
Viento 9 kt del sur-suroeste
Temperatura -3°C
Humedad 86%
Presión 1007 hPa
Visibilidad: 9.7 km
Cielo nuboso a una altura de 2600 ft
chaparrones de nieve

METAR: CYLU 152100Z 20009KT 6SM -SHSN BKN026 M03/M05 A2975 RMK SC7 LAST STFD OBS/NEXT 161200UTC SNW CVR/MUCH LOOSE SLP082

Hora: 23:59 (03:59 UTC)


TAF: falta

Observaciones y pronósticos meteorológicos de más de 4000 aeropuertos (mensajes METAR y TAF).

Los puntos amarillos y rojos representan las estaciones disponibles.

Ponga el ratón en el punto deseado para ver el nombre de la estación.

Haga clic para ver las observaciones y los pronósticos meteorológicos.

Para cambiar el mapa : haga clic en los botones verdes con una cruz de color negro para hacer un zoom, en el botón verde con un guión para alejar o en las flechas verdes para mapas adyacentes.


METAR-TAF: